createdAt,value
2017-05-19T00:01:12.300Z,8
2017-05-19T00:02:25.340Z,12
2017-05-19T00:03:37.807Z,16
2017-05-19T00:04:50.710Z,8
2017-05-19T00:06:03.605Z,4
2017-05-19T00:07:16.013Z,4
2017-05-19T00:08:27.929Z,12
2017-05-19T00:09:39.847Z,12
2017-05-19T00:10:52.752Z,12
2017-05-19T00:12:05.851Z,12
2017-05-19T00:13:17.777Z,12
2017-05-19T00:14:29.706Z,12
2017-05-19T00:15:42.117Z,12
2017-05-19T00:16:55.019Z,12
2017-05-19T00:18:07.978Z,12
2017-05-19T00:19:20.392Z,12
2017-05-19T00:20:33.295Z,12
2017-05-19T00:21:45.706Z,12
2017-05-19T00:22:58.806Z,12
2017-05-19T00:24:11.714Z,12
2017-05-19T00:25:24.613Z,12
2017-05-19T00:26:37.028Z,8
2017-05-19T00:27:49.932Z,12
2017-05-19T00:29:02.829Z,12
2017-05-19T00:30:15.734Z,8
2017-05-19T00:31:28.148Z,4
2017-05-19T00:32:41.048Z,8
2017-05-19T00:33:54.167Z,12
2017-05-19T00:35:07.075Z,8
2017-05-19T00:36:19.976Z,8
2017-05-19T00:37:32.938Z,8
2017-05-19T00:38:45.923Z,8
2017-05-19T00:39:58.907Z,8
2017-05-19T00:41:11.396Z,16
2017-05-19T00:42:23.880Z,12
2017-05-19T00:43:36.378Z,8
2017-05-19T00:44:48.878Z,4
2017-05-19T00:46:01.873Z,4
2017-05-19T00:47:13.877Z,4
2017-05-19T00:48:26.383Z,4
2017-05-19T00:49:39.383Z,12
2017-05-19T00:50:52.379Z,12
2017-05-19T00:52:04.880Z,12
2017-05-19T00:53:17.382Z,8
2017-05-19T00:54:30.385Z,4
2017-05-19T00:55:43.386Z,12
2017-05-19T00:56:56.383Z,12
2017-05-19T00:58:09.379Z,12
2017-05-19T00:59:21.884Z,12
2017-05-19T01:00:34.888Z,8
2017-05-19T01:01:48.083Z,8
2017-05-19T01:03:01.089Z,8
2017-05-19T01:04:13.589Z,8
2017-05-19T01:05:26.587Z,8
2017-05-19T01:06:39.587Z,4
2017-05-19T01:07:52.584Z,4
2017-05-19T01:09:05.580Z,4
2017-05-19T01:10:18.581Z,4
2017-05-19T01:11:31.031Z,12
2017-05-19T01:12:44.154Z,16
2017-05-19T01:13:57.078Z,12
2017-05-19T01:15:09.995Z,12
2017-05-19T01:16:22.908Z,4
2017-05-19T01:17:36.030Z,12
2017-05-19T01:18:48.950Z,12
2017-05-19T01:20:01.878Z,12
2017-05-19T01:21:14.305Z,12
2017-05-19T01:22:26.242Z,16
2017-05-19T01:23:39.169Z,12
2017-05-19T01:24:52.085Z,12
2017-05-19T01:26:05.015Z,12
2017-05-19T01:27:17.934Z,12
2017-05-19T01:28:30.475Z,12
2017-05-19T01:29:43.257Z,8
2017-05-19T01:30:55.556Z,12
2017-05-19T01:32:07.376Z,12
2017-05-19T01:33:19.674Z,12
2017-05-19T01:34:32.452Z,12
2017-05-19T01:35:45.232Z,12
2017-05-19T01:36:58.011Z,12
2017-05-19T01:38:09.835Z,12
2017-05-19T01:39:22.438Z,12
2017-05-19T01:40:34.258Z,12
2017-05-19T01:41:47.036Z,12
2017-05-19T01:42:59.823Z,12
2017-05-19T01:44:11.648Z,8
2017-05-19T01:45:24.196Z,8
2017-05-19T01:46:36.504Z,8
2017-05-19T01:47:49.285Z,8
2017-05-19T01:49:02.075Z,12
2017-05-19T01:50:15.058Z,12
2017-05-19T01:51:27.359Z,4
2017-05-19T01:52:40.147Z,8
2017-05-19T01:53:52.937Z,12
2017-05-19T01:55:05.722Z,12
2017-05-19T01:56:18.320Z,8
2017-05-19T01:57:31.099Z,12
2017-05-19T01:58:43.881Z,8
2017-05-19T01:59:56.189Z,8
2017-05-19T02:01:08.973Z,8
2017-05-19T02:02:21.755Z,8
2017-05-19T02:03:34.542Z,8
2017-05-19T02:04:47.325Z,8
2017-05-19T02:06:00.113Z,12
2017-05-19T02:07:12.716Z,8
2017-05-19T02:08:24.530Z,8
2017-05-19T02:09:37.307Z,12
2017-05-19T02:10:50.088Z,4
2017-05-19T02:12:03.074Z,12
2017-05-19T02:13:15.957Z,8
2017-05-19T02:14:28.879Z,8
2017-05-19T02:15:41.792Z,8
2017-05-19T02:16:54.957Z,8
2017-05-19T02:18:07.386Z,4
2017-05-19T02:19:19.812Z,8
2017-05-19T02:20:32.240Z,8
2017-05-19T02:21:45.160Z,4
2017-05-19T02:22:58.331Z,12
2017-05-19T02:24:10.758Z,12
2017-05-19T02:25:22.691Z,12
2017-05-19T02:26:35.116Z,12
2017-05-19T02:27:48.036Z,8
2017-05-19T02:29:15.002Z,12
2017-05-19T02:30:27.920Z,8
2017-05-19T02:31:40.366Z,4
2017-05-19T02:32:53.041Z,8
2017-05-19T02:34:05.956Z,8
2017-05-19T02:35:18.389Z,12
2017-05-19T02:36:31.308Z,8
2017-05-19T02:37:43.732Z,8
2017-05-19T02:38:56.953Z,4
2017-05-19T02:40:09.877Z,8
2017-05-19T02:41:21.811Z,12
2017-05-19T02:42:34.738Z,4
2017-05-19T02:43:47.666Z,8
2017-05-19T02:45:00.103Z,8
2017-05-19T02:46:12.538Z,8
2017-05-19T02:47:25.452Z,8
2017-05-19T02:48:37.392Z,8
2017-05-19T02:50:04.359Z,8
2017-05-19T02:51:16.790Z,8
2017-05-19T02:52:29.706Z,8
2017-05-19T02:53:42.628Z,8
2017-05-19T02:54:55.797Z,12
2017-05-19T02:56:08.717Z,12
2017-05-19T02:57:21.632Z,12
2017-05-19T02:58:33.964Z,12
2017-05-19T02:59:46.834Z,8
2017-05-19T03:01:00.006Z,8
2017-05-19T03:02:12.437Z,4
2017-05-19T03:03:25.357Z,8
2017-05-19T03:04:37.295Z,12
2017-05-19T03:05:50.468Z,12
2017-05-19T03:07:03.391Z,12
2017-05-19T03:08:15.333Z,8
2017-05-19T03:09:28.255Z,8
2017-05-19T03:10:41.211Z,8
2017-05-19T03:11:54.152Z,12
2017-05-19T03:13:07.090Z,8
2017-05-19T03:14:18.539Z,12
2017-05-19T03:15:31.457Z,8
2017-05-19T03:16:44.137Z,12
2017-05-19T03:17:57.059Z,4
2017-05-19T03:19:09.489Z,12
2017-05-19T03:20:21.919Z,12
2017-05-19T03:21:34.875Z,12
2017-05-19T03:22:47.797Z,8
2017-05-19T03:24:00.719Z,4
2017-05-19T03:25:13.145Z,12
2017-05-19T03:26:26.067Z,8
2017-05-19T03:27:38.657Z,12
2017-05-19T03:28:51.439Z,8
2017-05-19T03:30:04.271Z,12
2017-05-19T03:31:16.085Z,12
2017-05-19T03:32:27.418Z,12
2017-05-19T03:33:39.716Z,12
2017-05-19T03:34:52.494Z,12
2017-05-19T03:36:05.282Z,12
2017-05-19T03:37:17.577Z,12
2017-05-19T03:38:29.882Z,12
2017-05-19T03:39:42.659Z,12
2017-05-19T03:40:55.437Z,8
2017-05-19T03:42:08.223Z,8
2017-05-19T03:43:20.142Z,8
2017-05-19T03:44:32.821Z,12
2017-05-19T03:45:45.743Z,12
2017-05-19T03:46:58.660Z,8
2017-05-19T03:48:11.080Z,12
2017-05-19T03:49:24.001Z,8
2017-05-19T03:50:36.921Z,12
2017-05-19T03:51:49.840Z,4
2017-05-19T03:53:02.757Z,12
2017-05-19T03:54:15.678Z,8
2017-05-19T03:55:28.590Z,8
2017-05-19T03:56:41.510Z,8
2017-05-19T03:57:54.424Z,12
2017-05-19T03:59:07.343Z,12
2017-05-19T04:00:19.776Z,8
2017-05-19T04:01:32.035Z,8
2017-05-19T04:02:45.095Z,12
2017-05-19T04:03:58.157Z,8
2017-05-19T04:05:11.213Z,12
2017-05-19T04:06:24.278Z,12
2017-05-19T04:07:36.839Z,12
2017-05-19T04:08:49.897Z,8
2017-05-19T04:10:02.973Z,8
2017-05-19T04:11:16.284Z,8
2017-05-19T04:12:29.346Z,12
2017-05-19T04:13:42.407Z,8
2017-05-19T04:14:55.470Z,8
2017-05-19T04:16:08.525Z,12
2017-05-19T04:17:21.081Z,8
2017-05-19T04:18:33.639Z,8
2017-05-19T04:19:46.705Z,8
2017-05-19T04:20:59.763Z,12
2017-05-19T04:22:11.821Z,8
2017-05-19T04:23:24.677Z,12
2017-05-19T04:24:37.737Z,12
2017-05-19T04:25:50.790Z,8
2017-05-19T04:27:03.848Z,8
2017-05-19T04:28:16.304Z,12
2017-05-19T04:29:29.238Z,12
2017-05-19T04:30:42.160Z,12
2017-05-19T04:31:55.078Z,12
2017-05-19T04:33:07.995Z,12
2017-05-19T04:34:20.187Z,8
2017-05-19T04:35:33.108Z,8
2017-05-19T04:36:46.026Z,8
2017-05-19T04:37:58.950Z,12
2017-05-19T04:39:12.122Z,12
2017-05-19T04:40:24.551Z,8
2017-05-19T04:41:37.035Z,8
2017-05-19T04:42:49.958Z,8
2017-05-19T04:44:02.887Z,12
2017-05-19T04:45:15.081Z,8
2017-05-19T04:46:27.997Z,8
2017-05-19T04:47:40.436Z,8
2017-05-19T04:48:53.358Z,8
2017-05-19T04:50:06.040Z,12
2017-05-19T04:51:18.974Z,8
2017-05-19T04:52:30.913Z,8
2017-05-19T04:53:43.835Z,8
2017-05-19T04:54:56.266Z,8
2017-05-19T04:56:09.431Z,12
2017-05-19T04:57:22.350Z,12
2017-05-19T04:58:35.273Z,8
2017-05-19T04:59:47.708Z,12
2017-05-19T05:01:00.876Z,12
2017-05-19T05:02:13.307Z,8
2017-05-19T05:03:25.793Z,12
2017-05-19T05:04:38.229Z,8
2017-05-19T05:05:51.150Z,8
2017-05-19T05:07:04.072Z,8
2017-05-19T05:08:16.013Z,12
2017-05-19T05:09:27.954Z,12
2017-05-19T05:10:40.297Z,12
2017-05-19T05:11:53.327Z,8
2017-05-19T05:13:06.214Z,12
2017-05-19T05:14:19.129Z,12
2017-05-19T05:15:31.063Z,12
2017-05-19T05:16:44.011Z,8
2017-05-19T05:17:57.255Z,12
2017-05-19T05:19:10.178Z,8
2017-05-19T05:20:22.610Z,8
2017-05-19T05:21:35.038Z,8
2017-05-19T05:22:48.211Z,8
2017-05-19T05:24:01.130Z,8
2017-05-19T05:25:13.068Z,12
2017-05-19T05:26:25.496Z,12
2017-05-19T05:27:37.432Z,12
2017-05-19T05:28:50.657Z,12
2017-05-19T05:30:03.083Z,12
2017-05-19T05:31:16.003Z,12
2017-05-19T05:32:28.929Z,12
2017-05-19T05:33:41.116Z,8
2017-05-19T05:34:54.037Z,12
2017-05-19T05:36:06.955Z,12
2017-05-19T05:37:19.386Z,12
2017-05-19T05:38:32.307Z,12
2017-05-19T05:39:45.525Z,12
2017-05-19T05:40:57.946Z,12
2017-05-19T05:42:10.369Z,12
2017-05-19T05:43:22.796Z,12
2017-05-19T05:44:36.036Z,8
2017-05-19T05:45:48.956Z,12
2017-05-19T05:47:01.874Z,12
2017-05-19T05:48:13.814Z,8
2017-05-19T05:49:26.732Z,12
2017-05-19T05:50:39.156Z,8
2017-05-19T05:51:52.078Z,12
2017-05-19T05:53:04.507Z,12
2017-05-19T05:54:16.462Z,12
2017-05-19T05:55:28.892Z,12
2017-05-19T05:56:41.819Z,12
2017-05-19T05:57:54.738Z,8
2017-05-19T05:59:07.657Z,8
2017-05-19T06:00:20.077Z,12
2017-05-19T06:01:32.314Z,12
2017-05-19T06:02:45.237Z,12
2017-05-19T06:03:58.152Z,12
2017-05-19T06:05:10.086Z,12
2017-05-19T06:06:22.763Z,12
2017-05-19T06:07:35.680Z,8
2017-05-19T06:08:48.592Z,12
2017-05-19T06:10:01.512Z,12
2017-05-19T06:11:14.727Z,8
2017-05-19T06:12:27.159Z,4
2017-05-19T06:13:40.088Z,8
2017-05-19T06:14:52.516Z,12
2017-05-19T06:16:05.429Z,12
2017-05-19T06:17:18.105Z,12
2017-05-19T06:18:30.537Z,12
2017-05-19T06:19:43.453Z,12
2017-05-19T06:20:56.369Z,8
2017-05-19T06:22:09.288Z,12
2017-05-19T06:23:21.232Z,12
2017-05-19T06:24:33.663Z,12
2017-05-19T06:25:46.578Z,8
2017-05-19T06:26:59.494Z,12
2017-05-19T06:28:12.409Z,12
2017-05-19T06:29:24.348Z,8
2017-05-19T06:30:36.781Z,8
2017-05-19T06:31:49.701Z,12
2017-05-19T06:33:02.618Z,12
2017-05-19T06:34:15.341Z,12
2017-05-19T06:35:28.260Z,12
2017-05-19T06:36:40.687Z,8
2017-05-19T06:37:53.605Z,12
2017-05-19T06:39:06.775Z,12
2017-05-19T06:40:19.240Z,12
2017-05-19T06:41:30.687Z,12
2017-05-19T06:42:43.605Z,12
2017-05-19T06:43:56.520Z,12
2017-05-19T06:45:09.267Z,8
2017-05-19T06:46:21.691Z,12
2017-05-19T06:47:33.626Z,12
2017-05-19T06:48:46.541Z,12
2017-05-19T06:49:59.708Z,12
2017-05-19T06:51:12.633Z,12
2017-05-19T06:52:25.552Z,12
2017-05-19T06:53:37.977Z,8
2017-05-19T06:54:50.898Z,8
2017-05-19T06:56:04.116Z,8
2017-05-19T06:57:16.050Z,12
2017-05-19T06:58:27.986Z,12
2017-05-19T06:59:40.902Z,12
2017-05-19T07:00:53.818Z,12
2017-05-19T07:02:06.731Z,12
2017-05-19T07:03:19.647Z,8
2017-05-19T07:04:32.069Z,12
2017-05-19T07:05:44.983Z,12
2017-05-19T07:06:57.900Z,12
2017-05-19T07:08:09.838Z,8
2017-05-19T07:09:22.285Z,12
2017-05-19T07:10:35.207Z,8
2017-05-19T07:11:48.419Z,8
2017-05-19T07:13:00.857Z,12
2017-05-19T07:14:12.792Z,12
2017-05-19T07:15:24.732Z,12
2017-05-19T07:16:37.160Z,12
2017-05-19T07:17:50.081Z,8
2017-05-19T07:19:02.512Z,8
2017-05-19T07:20:14.451Z,12
2017-05-19T07:21:26.871Z,12
2017-05-19T07:22:39.301Z,12
2017-05-19T07:23:52.469Z,12
2017-05-19T07:25:05.390Z,12
2017-05-19T07:26:17.332Z,8
2017-05-19T07:27:29.733Z,12
2017-05-19T07:28:42.287Z,12
2017-05-19T07:29:55.069Z,12
2017-05-19T07:31:07.369Z,8
2017-05-19T07:32:19.664Z,12
2017-05-19T07:33:31.965Z,12
2017-05-19T07:34:44.750Z,12
2017-05-19T07:35:57.046Z,12
2017-05-19T07:37:09.821Z,12
2017-05-19T07:38:22.120Z,12
2017-05-19T07:39:34.675Z,8
2017-05-19T07:40:47.456Z,12
2017-05-19T07:42:00.245Z,12
2017-05-19T07:43:13.028Z,12
2017-05-19T07:44:25.330Z,12
2017-05-19T07:45:37.637Z,4
2017-05-19T07:46:50.419Z,8
2017-05-19T07:48:03.202Z,12
2017-05-19T07:49:15.497Z,12
2017-05-19T07:50:28.288Z,12
2017-05-19T07:51:40.106Z,12
2017-05-19T07:52:52.889Z,12
2017-05-19T07:54:05.666Z,8
2017-05-19T07:55:18.445Z,12
2017-05-19T07:56:31.222Z,12
2017-05-19T07:57:44.004Z,12
2017-05-19T07:58:56.794Z,12
2017-05-19T08:00:09.090Z,4
2017-05-19T08:01:20.908Z,12
2017-05-19T08:02:33.206Z,12
2017-05-19T08:03:45.991Z,12
2017-05-19T08:04:58.773Z,12
2017-05-19T08:06:11.556Z,12
2017-05-19T08:07:22.891Z,12
2017-05-19T08:08:35.194Z,12
2017-05-19T08:09:47.975Z,12
2017-05-19T08:11:00.752Z,12
2017-05-19T08:12:13.830Z,12
2017-05-19T08:13:26.711Z,8
2017-05-19T08:14:39.626Z,12
2017-05-19T08:15:52.547Z,8
2017-05-19T08:17:05.759Z,12
2017-05-19T08:18:18.189Z,12
2017-05-19T08:19:30.625Z,8
2017-05-19T08:20:43.060Z,8
2017-05-19T08:21:55.487Z,12
2017-05-19T08:23:07.673Z,4
2017-05-19T08:24:19.609Z,12
2017-05-19T08:25:32.039Z,12
2017-05-19T08:26:44.954Z,12
2017-05-19T08:27:57.873Z,12
2017-05-19T08:29:10.602Z,12
2017-05-19T08:30:22.532Z,12
2017-05-19T08:31:34.471Z,8
2017-05-19T08:32:47.385Z,8
2017-05-19T08:34:00.321Z,8
2017-05-19T08:35:12.751Z,8
2017-05-19T08:36:25.175Z,8
2017-05-19T08:37:37.736Z,8
2017-05-19T08:38:50.795Z,8
2017-05-19T08:40:04.108Z,8
2017-05-19T08:41:16.665Z,8
2017-05-19T08:42:29.722Z,8
2017-05-19T08:43:42.778Z,8
2017-05-19T08:44:55.345Z,8
2017-05-19T08:46:07.409Z,8
2017-05-19T08:47:19.471Z,12
2017-05-19T08:48:32.032Z,8
2017-05-19T08:49:44.090Z,12
2017-05-19T08:50:57.399Z,8
2017-05-19T08:52:10.460Z,4
2017-05-19T08:53:23.523Z,4
2017-05-19T08:54:36.081Z,4
2017-05-19T08:55:48.641Z,16
2017-05-19T08:57:01.694Z,12
2017-05-19T08:58:14.746Z,8
2017-05-19T08:59:27.784Z,8
2017-05-19T09:00:41.121Z,8
2017-05-19T09:01:54.169Z,8
2017-05-19T09:03:06.726Z,8
2017-05-19T09:04:19.270Z,8
2017-05-19T09:05:31.313Z,8
2017-05-19T09:06:43.859Z,8
2017-05-19T09:07:55.958Z,12
2017-05-19T09:09:09.001Z,12
2017-05-19T09:10:21.545Z,12
2017-05-19T09:11:34.635Z,12
2017-05-19T09:12:47.929Z,12
2017-05-19T09:14:00.973Z,12
2017-05-19T09:15:14.010Z,4
2017-05-19T09:16:27.050Z,12
2017-05-19T09:17:39.588Z,8
2017-05-19T09:18:52.627Z,8
2017-05-19T09:20:05.173Z,12
2017-05-19T09:21:17.715Z,12
2017-05-19T09:22:30.763Z,8
2017-05-19T09:23:43.613Z,12
2017-05-19T09:24:56.652Z,8
2017-05-19T09:26:09.691Z,12
2017-05-19T09:27:21.244Z,8
2017-05-19T09:28:34.087Z,12
2017-05-19T09:29:46.628Z,12
2017-05-19T09:30:59.665Z,12
2017-05-19T09:32:12.705Z,4
2017-05-19T09:33:24.744Z,12
2017-05-19T09:34:37.784Z,12
2017-05-19T09:35:50.824Z,12
2017-05-19T09:37:03.864Z,8
2017-05-19T09:38:15.905Z,12
2017-05-19T09:39:29.312Z,4
2017-05-19T09:40:41.354Z,4
2017-05-19T09:41:54.400Z,4
2017-05-19T09:43:07.454Z,12
2017-05-19T09:44:20.012Z,12
2017-05-19T09:45:32.819Z,12
2017-05-19T09:46:45.785Z,12
2017-05-19T09:47:58.706Z,12
2017-05-19T09:49:11.131Z,12
2017-05-19T09:50:23.562Z,12
2017-05-19T09:51:36.525Z,12
2017-05-19T09:52:49.441Z,16
2017-05-19T09:54:02.366Z,16
2017-05-19T09:55:14.786Z,16
2017-05-19T09:56:27.463Z,16
2017-05-19T09:57:39.399Z,20
2017-05-19T09:58:51.825Z,20
2017-05-19T10:00:04.249Z,12
2017-05-19T10:01:16.183Z,20
2017-05-19T10:02:29.101Z,20
2017-05-19T10:03:42.019Z,16
2017-05-19T10:04:54.505Z,12
2017-05-19T10:06:07.421Z,20
2017-05-19T10:07:19.849Z,20
2017-05-19T10:08:32.765Z,20
2017-05-19T10:09:45.683Z,20
2017-05-19T10:10:58.600Z,12
2017-05-19T10:12:11.768Z,16
2017-05-19T10:13:23.705Z,16
2017-05-19T10:14:36.624Z,20
2017-05-19T10:15:49.544Z,16
2017-05-19T10:17:01.965Z,16
2017-05-19T10:18:13.168Z,12
2017-05-19T10:19:25.106Z,12
2017-05-19T10:20:38.028Z,12
2017-05-19T10:21:51.037Z,16
2017-05-19T10:23:04.098Z,16
2017-05-19T10:24:16.156Z,20
2017-05-19T10:25:29.213Z,20
2017-05-19T10:26:42.269Z,16
2017-05-19T10:27:55.321Z,16
2017-05-19T10:29:08.618Z,16
2017-05-19T10:30:21.662Z,12
2017-05-19T10:31:34.700Z,16
2017-05-19T10:32:47.745Z,16
2017-05-19T10:34:01.038Z,16
2017-05-19T10:35:14.079Z,16
2017-05-19T10:36:27.174Z,16
2017-05-19T10:37:40.219Z,16
2017-05-19T10:38:52.759Z,20
2017-05-19T10:40:05.856Z,16
2017-05-19T10:41:18.396Z,20
2017-05-19T10:42:30.444Z,28
2017-05-19T10:43:43.483Z,28
2017-05-19T10:44:56.579Z,24
2017-05-19T10:46:09.616Z,28
2017-05-19T10:47:21.171Z,32
2017-05-19T10:48:33.711Z,44
2017-05-19T10:49:46.263Z,44
2017-05-19T10:50:59.551Z,52
2017-05-19T10:52:12.591Z,60
2017-05-19T10:53:24.630Z,64
2017-05-19T10:54:36.173Z,60
2017-05-19T10:55:48.640Z,64
2017-05-19T10:57:01.532Z,64
2017-05-19T10:58:13.950Z,72
2017-05-19T10:59:26.849Z,76
2017-05-19T11:00:39.751Z,84
2017-05-19T11:01:52.948Z,76
2017-05-19T11:03:05.355Z,68
2017-05-19T11:04:17.763Z,60
2017-05-19T11:05:30.180Z,60
2017-05-19T11:06:43.082Z,64
2017-05-19T11:07:55.982Z,64
2017-05-19T11:09:08.398Z,64
2017-05-19T11:10:20.311Z,68
2017-05-19T11:11:32.230Z,72
2017-05-19T11:12:45.296Z,76
2017-05-19T11:13:57.705Z,88
2017-05-19T11:15:10.601Z,96
2017-05-19T11:16:22.584Z,88
2017-05-19T11:17:34.991Z,80
2017-05-19T11:18:46.910Z,80
2017-05-19T11:19:59.807Z,96
2017-05-19T11:21:12.272Z,112
2017-05-19T11:22:24.681Z,144
2017-05-19T11:23:37.089Z,148
2017-05-19T11:24:50.001Z,132
2017-05-19T11:26:02.410Z,116
2017-05-19T11:27:15.316Z,140
2017-05-19T11:28:27.237Z,160
2017-05-19T11:29:40.138Z,140
2017-05-19T11:30:51.565Z,132
2017-05-19T11:32:04.463Z,160
2017-05-19T11:33:17.370Z,188
2017-05-19T11:34:30.517Z,224
2017-05-19T11:35:43.415Z,244
2017-05-19T11:36:55.831Z,252
2017-05-19T11:38:08.237Z,204
2017-05-19T11:39:21.138Z,180
2017-05-19T11:40:33.551Z,180
2017-05-19T11:41:45.467Z,172
2017-05-19T11:42:58.370Z,156
2017-05-19T11:44:10.801Z,212
2017-05-19T11:45:23.213Z,252
2017-05-19T11:46:35.620Z,220
2017-05-19T11:47:47.538Z,228
2017-05-19T11:49:00.439Z,276
2017-05-19T11:50:12.848Z,268
2017-05-19T11:51:25.255Z,168
2017-05-19T11:52:38.154Z,152
2017-05-19T11:53:49.095Z,124
2017-05-19T11:55:02.000Z,108
2017-05-19T11:56:13.920Z,120
2017-05-19T11:57:26.337Z,112
2017-05-19T11:58:38.265Z,96
2017-05-19T11:59:50.182Z,84
2017-05-19T12:01:03.090Z,76
2017-05-19T12:02:16.045Z,72
2017-05-19T12:03:28.954Z,84
2017-05-19T12:04:41.859Z,144
2017-05-19T12:05:54.268Z,164
2017-05-19T12:07:06.975Z,120
2017-05-19T12:08:19.383Z,72
2017-05-19T12:09:32.289Z,84
2017-05-19T12:10:45.185Z,124
2017-05-19T12:11:58.332Z,112
2017-05-19T12:13:10.736Z,84
2017-05-19T12:14:22.653Z,76
2017-05-19T12:15:35.549Z,84
2017-05-19T12:16:48.444Z,92
2017-05-19T12:18:00.854Z,88
2017-05-19T12:19:13.750Z,120
2017-05-19T12:20:26.643Z,116
2017-05-19T12:21:39.055Z,108
2017-05-19T12:22:51.961Z,92
2017-05-19T12:24:04.860Z,88
2017-05-19T12:25:16.781Z,96
2017-05-19T12:26:29.680Z,92
2017-05-19T12:27:42.091Z,120
2017-05-19T12:28:54.010Z,144
2017-05-19T12:30:06.913Z,116
2017-05-19T12:31:19.812Z,100
2017-05-19T12:32:32.217Z,120
2017-05-19T12:33:44.445Z,132
2017-05-19T12:34:57.340Z,120
2017-05-19T12:36:10.244Z,100
2017-05-19T12:37:22.651Z,80
2017-05-19T12:38:35.062Z,72
2017-05-19T12:39:47.593Z,80
2017-05-19T12:41:00.137Z,88
2017-05-19T12:42:13.158Z,76
2017-05-19T12:43:26.086Z,52
2017-05-19T12:44:38.515Z,76
2017-05-19T12:45:50.450Z,112
2017-05-19T12:47:03.367Z,144
2017-05-19T12:48:15.805Z,164
2017-05-19T12:49:27.747Z,164
2017-05-19T12:50:40.275Z,192
2017-05-19T12:51:52.212Z,204
2017-05-19T12:53:04.650Z,184
2017-05-19T12:54:17.570Z,192
2017-05-19T12:55:44.042Z,180
2017-05-19T12:56:56.471Z,172
2017-05-19T12:58:08.902Z,144
2017-05-19T12:59:21.831Z,132
2017-05-19T13:00:34.071Z,140
2017-05-19T13:01:46.498Z,132
2017-05-19T13:02:59.414Z,140
2017-05-19T13:04:11.841Z,128
2017-05-19T13:06:51.052Z,128
2017-05-19T13:08:03.478Z,168
2017-05-19T13:09:15.414Z,240
2017-05-19T13:10:27.854Z,256
2017-05-19T13:11:41.221Z,240
2017-05-19T13:12:52.732Z,220
2017-05-19T13:14:05.069Z,252
2017-05-19T13:15:17.845Z,220
2017-05-19T13:16:29.665Z,156
2017-05-19T13:17:41.962Z,124
2017-05-19T13:18:53.298Z,120
2017-05-19T13:20:05.595Z,136
2017-05-19T13:21:18.390Z,160
2017-05-19T13:22:31.165Z,188
2017-05-19T13:23:43.948Z,172
2017-05-19T13:24:56.251Z,196
2017-05-19T13:26:08.546Z,256
2017-05-19T13:27:20.844Z,264
2017-05-19T13:28:33.619Z,252
2017-05-19T13:29:46.396Z,220
2017-05-19T13:30:59.175Z,184
2017-05-19T13:32:11.958Z,140
2017-05-19T13:33:23.293Z,120
2017-05-19T13:34:35.595Z,116
2017-05-19T13:35:47.891Z,144
2017-05-19T13:37:00.670Z,168
2017-05-19T13:38:13.452Z,176
2017-05-19T13:39:25.566Z,200
2017-05-19T13:40:37.860Z,232
2017-05-19T13:41:50.165Z,220
2017-05-19T13:43:02.470Z,192
2017-05-19T13:44:14.768Z,136
2017-05-19T13:45:27.556Z,112
2017-05-19T13:46:40.333Z,112
2017-05-19T13:47:53.123Z,88
2017-05-19T13:49:04.944Z,64
2017-05-19T13:50:16.277Z,64
2017-05-19T13:51:29.061Z,80
2017-05-19T13:52:41.358Z,96
2017-05-19T13:53:53.680Z,80
2017-05-19T13:55:06.464Z,48
2017-05-19T13:56:19.240Z,48
2017-05-19T13:57:31.537Z,44
2017-05-19T13:58:44.322Z,48
2017-05-19T13:59:56.631Z,52
2017-05-19T14:01:09.711Z,56
2017-05-19T14:02:22.011Z,44
2017-05-19T14:03:34.794Z,40
2017-05-19T14:04:46.620Z,40
2017-05-19T14:05:59.402Z,32
2017-05-19T14:07:11.700Z,36
2017-05-19T14:08:24.000Z,36
2017-05-19T14:09:36.300Z,32
2017-05-19T14:10:49.083Z,24
2017-05-19T14:12:01.385Z,24
2017-05-19T14:13:13.294Z,32
2017-05-19T14:14:25.713Z,40
2017-05-19T14:15:37.700Z,48
2017-05-19T14:16:50.605Z,64
2017-05-19T14:18:03.503Z,72
2017-05-19T14:19:15.918Z,80
2017-05-19T14:20:28.341Z,80
2017-05-19T14:21:40.277Z,72
2017-05-19T14:22:51.704Z,68
2017-05-19T14:24:04.607Z,56
2017-05-19T14:25:17.009Z,44
2017-05-19T14:26:29.418Z,36
2017-05-19T14:27:41.345Z,36
2017-05-19T14:28:54.245Z,48
2017-05-19T14:30:06.662Z,56
2017-05-19T14:31:18.581Z,52
2017-05-19T14:32:31.500Z,48
2017-05-19T14:33:44.398Z,72
2017-05-19T14:34:56.325Z,80
2017-05-19T14:36:09.223Z,72
2017-05-19T14:37:22.140Z,60
2017-05-19T14:38:35.057Z,52
2017-05-19T14:39:47.463Z,56
2017-05-19T14:41:00.362Z,44
2017-05-19T14:42:13.706Z,48
2017-05-19T14:43:26.168Z,52
2017-05-19T14:44:39.068Z,48
2017-05-19T14:45:51.515Z,56
2017-05-19T14:47:04.409Z,52
2017-05-19T14:48:17.618Z,32
2017-05-19T14:49:30.090Z,16
2017-05-19T14:50:42.993Z,12
2017-05-19T14:51:54.905Z,24
2017-05-19T14:53:06.826Z,32
2017-05-19T14:54:19.247Z,48
2017-05-19T14:55:32.195Z,72
2017-05-19T14:56:45.096Z,68
2017-05-19T14:57:57.523Z,56
2017-05-19T14:59:10.438Z,56
2017-05-19T15:00:22.673Z,64
2017-05-19T15:01:35.594Z,64
2017-05-19T15:02:48.023Z,80
2017-05-19T15:04:00.452Z,100
2017-05-19T15:05:13.364Z,108
2017-05-19T15:06:26.532Z,116
2017-05-19T15:07:39.454Z,120
2017-05-19T15:08:51.437Z,128
2017-05-19T15:10:03.870Z,132
2017-05-19T15:11:17.085Z,120
2017-05-19T15:12:30.005Z,112
2017-05-19T15:13:41.958Z,96
2017-05-19T15:14:54.890Z,76
2017-05-19T15:16:07.319Z,72
2017-05-19T15:17:19.259Z,76
2017-05-19T15:18:32.184Z,92
2017-05-19T15:19:45.107Z,112
2017-05-19T15:20:58.057Z,124
2017-05-19T15:22:09.993Z,124
2017-05-19T15:23:21.940Z,104
2017-05-19T15:24:34.376Z,84
2017-05-19T15:25:47.060Z,88
2017-05-19T15:26:58.995Z,120
2017-05-19T15:28:11.909Z,144
2017-05-19T15:29:24.341Z,168
2017-05-19T15:30:35.786Z,208
2017-05-19T15:31:48.711Z,232
2017-05-19T15:33:00.653Z,244
2017-05-19T15:34:13.077Z,248
2017-05-19T15:35:25.019Z,220
2017-05-19T15:36:37.446Z,164
2017-05-19T15:37:49.383Z,156
2017-05-19T15:39:02.301Z,156
2017-05-19T15:40:14.725Z,192
2017-05-19T15:41:27.642Z,228
2017-05-19T15:42:40.459Z,276
2017-05-19T15:43:53.253Z,328
2017-05-19T15:45:05.828Z,328
2017-05-19T15:46:18.123Z,300
2017-05-19T15:47:29.953Z,288
2017-05-19T15:48:43.310Z,232
2017-05-19T15:49:56.735Z,212
2017-05-19T15:51:09.513Z,236
2017-05-19T15:52:22.291Z,212
2017-05-19T15:53:35.075Z,148
2017-05-19T15:54:47.382Z,108
2017-05-19T15:55:59.504Z,116
2017-05-19T15:57:11.327Z,116
2017-05-19T15:58:23.154Z,124
2017-05-19T15:59:35.453Z,144
2017-05-19T16:00:47.749Z,136
2017-05-19T16:02:00.050Z,132
2017-05-19T16:03:12.834Z,144
2017-05-19T16:04:25.136Z,144
2017-05-19T16:05:37.433Z,144
2017-05-19T16:06:50.214Z,148
2017-05-19T16:08:02.576Z,136
2017-05-19T16:09:14.905Z,128
2017-05-19T16:10:27.684Z,124
2017-05-19T16:11:39.989Z,124
2017-05-19T16:12:52.286Z,120
2017-05-19T16:14:04.592Z,124
2017-05-19T16:15:16.888Z,132
2017-05-19T16:16:28.772Z,132
2017-05-19T16:17:41.858Z,132
2017-05-19T16:18:54.154Z,132
2017-05-19T16:20:06.451Z,132
2017-05-19T16:21:19.239Z,132
2017-05-19T16:22:31.204Z,136
2017-05-19T16:23:43.020Z,136
2017-05-19T16:24:54.358Z,136
2017-05-19T16:26:06.657Z,140
2017-05-19T16:27:18.072Z,140
2017-05-19T16:28:30.488Z,148
2017-05-19T16:29:43.387Z,152
2017-05-19T16:30:55.802Z,164
2017-05-19T16:32:08.701Z,164
2017-05-19T16:33:21.613Z,168
2017-05-19T16:34:34.765Z,168
2017-05-19T16:35:47.661Z,172
2017-05-19T16:37:00.571Z,176
2017-05-19T16:38:12.986Z,184
2017-05-19T16:39:26.137Z,188
2017-05-19T16:40:38.546Z,192
2017-05-19T16:41:51.444Z,192
2017-05-19T16:43:03.857Z,188
2017-05-19T16:44:16.754Z,168
2017-05-19T16:45:29.415Z,144
2017-05-19T16:46:41.345Z,144
2017-05-19T16:47:53.755Z,140
2017-05-19T16:49:06.656Z,148
2017-05-19T16:50:19.318Z,152
2017-05-19T16:51:31.725Z,156
2017-05-19T16:52:44.627Z,164
2017-05-19T16:53:56.556Z,168
2017-05-19T16:55:08.962Z,172
2017-05-19T16:56:21.865Z,176
2017-05-19T16:57:34.765Z,180
2017-05-19T16:58:47.175Z,180
2017-05-19T16:59:59.580Z,180
2017-05-19T17:01:12.735Z,176
2017-05-19T17:02:25.145Z,176
2017-05-19T17:03:37.556Z,172
2017-05-19T17:04:50.455Z,160
2017-05-19T17:06:02.872Z,160
2017-05-19T17:07:16.015Z,160
2017-05-19T17:08:28.917Z,156
2017-05-19T17:09:40.837Z,156
2017-05-19T17:10:52.264Z,156
2017-05-19T17:12:05.468Z,168
2017-05-19T17:13:17.881Z,168
2017-05-19T17:14:30.297Z,168
2017-05-19T17:15:43.197Z,164
2017-05-19T17:16:55.604Z,144
2017-05-19T17:18:08.020Z,128